Time;durP1;ratioP1;P1;durP2;ratioP2;P2;SDS_P1;SDS_P2;PMS_P1;PMS_P2;Temp;Humidity;BMP_temperature;BMP_pressure;BME280_temperature;BME280_humidity;BME280_pressure;Samples;Min_cycle;Max_cycle;Signal;HPM_P1;HPM_P2
2022/05/07 00:02:25;;;;;;;52.83;37.03;;;12.40;99.90;;;;;;2253349;63;20562;-69
2022/05/07 00:05:02;;;;;;;51.55;36.78;;;12.70;99.90;;;;;;2253939;63;20177;-69
2022/05/07 00:07:40;;;;;;;51.47;37.78;;;12.40;99.90;;;;;;2253780;63;20242;-70
2022/05/07 00:10:20;;;;;;;56.58;38.20;;;12.50;99.90;;;;;;2252871;63;20804;-68
2022/05/07 00:13:01;;;;;;;54.53;38.03;;;12.50;99.90;;;;;;2254313;63;20176;-68
2022/05/07 00:18:01;;;;;;;50.35;36.95;;;12.50;99.90;;;;;;2254160;63;20206;-69
2022/05/07 00:18:38;;;;;;;56.42;37.67;;;12.60;99.90;;;;;;2254360;63;20275;-69
2022/05/07 00:21:19;;;;;;;50.63;39.30;;;12.60;99.90;;;;;;2253436;63;20740;-69
2022/05/07 00:24:02;;;;;;;51.65;37.45;;;12.60;99.90;;;;;;2254393;63;20232;-68
2022/05/07 00:26:42;;;;;;;56.40;37.78;;;12.70;99.90;;;;;;2252686;63;20631;-68
2022/05/07 00:29:23;;;;;;;53.00;36.42;;;12.70;99.90;;;;;;2254053;63;20203;-69
2022/05/07 00:32:03;;;;;;;49.03;36.95;;;12.70;99.90;;;;;;2253015;63;20208;-68
2022/05/07 00:34:41;;;;;;;52.78;35.65;;;12.70;99.90;;;;;;2253119;63;20647;-69
2022/05/07 00:37:23;;;;;;;50.88;36.20;;;12.80;99.90;;;;;;2253794;63;20265;-68
2022/05/07 00:40:03;;;;;;;52.40;36.65;;;12.80;99.90;;;;;;2253495;63;20196;-68
2022/05/07 00:42:41;;;;;;;51.47;37.00;;;12.90;99.90;;;;;;2254193;63;20160;-69
2022/05/07 00:45:20;;;;;;;50.50;34.97;;;12.90;99.90;;;;;;2253986;63;20711;-68
2022/05/07 00:47:58;;;;;;;50.03;37.00;;;13.00;99.90;;;;;;2253174;63;20181;-68
2022/05/07 00:53:34;;;;;;;54.37;39.70;;;13.00;99.90;;;;;;2253961;63;20192;-68
2022/05/07 00:56:14;;;;;;;51.22;37.50;;;13.00;99.90;;;;;;2252978;63;20273;-70
2022/05/07 00:58:56;;;;;;;54.00;38.08;;;13.00;99.90;;;;;;2253545;63;20204;-69
2022/05/07 01:01:33;;;;;;;52.35;36.42;;;13.10;99.90;;;;;;2253668;63;20190;-69
2022/05/07 01:04:14;;;;;;;49.90;35.88;;;13.00;99.90;;;;;;2252341;63;20177;-67
2022/05/07 01:06:54;;;;;;;53.17;36.78;;;13.00;99.90;;;;;;2251928;63;20711;-68
2022/05/07 01:09:32;;;;;;;49.97;35.83;;;13.00;99.90;;;;;;2253723;63;20306;-68
2022/05/07 01:12:13;;;;;;;52.17;34.67;;;13.00;99.90;;;;;;2253715;63;20333;-68
2022/05/07 01:14:58;;;;;;;49.30;34.80;;;13.10;99.90;;;;;;2250202;63;20194;-69
2022/05/07 01:17:38;;;;;;;48.70;35.28;;;13.00;99.90;;;;;;2251345;63;20160;-68
2022/05/07 01:20:17;;;;;;;47.83;34.35;;;13.10;99.90;;;;;;2253612;63;20633;-68
2022/05/07 01:23:00;;;;;;;47.20;32.78;;;13.10;99.90;;;;;;2253691;63;21941;-68
2022/05/07 01:25:40;;;;;;;53.13;35.67;;;13.10;99.90;;;;;;2253064;63;20309;-69
2022/05/07 01:28:20;;;;;;;51.05;35.10;;;13.10;99.90;;;;;;2253075;63;20291;-69
2022/05/07 01:30:56;;;;;;;46.47;33.00;;;13.10;99.90;;;;;;2253697;63;20201;-68
2022/05/07 01:33:35;;;;;;;49.90;34.40;;;13.20;99.90;;;;;;2253558;63;20196;-69
2022/05/07 01:36:19;;;;;;;49.15;35.00;;;13.20;99.90;;;;;;2252044;63;20545;-69
2022/05/07 01:38:56;;;;;;;53.88;35.25;;;13.20;99.90;;;;;;2248722;63;20164;-68
2022/05/07 01:41:36;;;;;;;50.28;33.55;;;13.20;99.90;;;;;;2254398;63;20168;-69
2022/05/07 01:44:17;;;;;;;46.78;33.85;;;13.20;99.90;;;;;;2254716;63;20202;-69
2022/05/07 01:49:51;;;;;;;51.55;34.65;;;13.20;99.90;;;;;;2247447;63;20173;-69
2022/05/07 01:52:28;;;;;;;46.25;32.92;;;13.20;99.90;;;;;;2254593;63;20164;-68
2022/05/07 01:55:05;;;;;;;49.53;34.17;;;13.20;99.90;;;;;;2253250;63;20633;-68
2022/05/07 01:57:43;;;;;;;47.00;35.95;;;13.20;99.90;;;;;;2254019;63;20223;-67
2022/05/07 02:00:22;;;;;;;49.70;34.70;;;13.20;99.90;;;;;;2254523;63;20187;-68
2022/05/07 02:03:00;;;;;;;43.80;32.97;;;13.20;99.90;;;;;;2254230;63;20225;-68
2022/05/07 02:05:40;;;;;;;47.67;33.70;;;13.20;99.90;;;;;;2254375;63;20189;-69
2022/05/07 02:08:18;;;;;;;53.67;34.35;;;13.20;99.90;;;;;;2254963;63;20355;-69
2022/05/07 02:11:00;;;;;;;43.67;32.30;;;13.20;99.90;;;;;;2253933;63;20181;-69
2022/05/07 02:13:37;;;;;;;51.88;34.35;;;13.20;99.90;;;;;;2252041;63;20281;-68
2022/05/07 02:16:14;;;;;;;46.35;32.20;;;13.20;99.90;;;;;;2251286;63;20169;-69
2022/05/07 02:18:52;;;;;;;49.67;34.53;;;13.20;99.90;;;;;;2254127;63;20161;-67
2022/05/07 02:21:32;;;;;;;45.97;32.60;;;13.30;99.90;;;;;;2254568;63;20172;-67
2022/05/07 02:24:12;;;;;;;50.45;33.22;;;13.40;99.90;;;;;;2254035;63;20189;-69
2022/05/07 02:26:49;;;;;;;45.88;31.30;;;13.30;99.90;;;;;;2253920;63;20208;-68
2022/05/07 02:29:29;;;;;;;42.40;32.47;;;13.20;99.90;;;;;;2254665;63;20233;-69
2022/05/07 02:32:13;;;;;;;44.83;33.10;;;13.30;99.90;;;;;;2254317;63;20204;-68
2022/05/07 02:34:52;;;;;;;46.15;31.52;;;13.30;99.90;;;;;;2253680;63;20573;-69
2022/05/07 02:37:32;;;;;;;45.75;32.42;;;13.30;99.90;;;;;;2254683;63;20248;-69
2022/05/07 02:40:12;;;;;;;40.53;30.27;;;13.30;99.90;;;;;;2254318;63;20172;-69
2022/05/07 02:42:50;;;;;;;42.67;30.92;;;13.20;99.90;;;;;;2254451;63;20515;-69
2022/05/07 02:45:30;;;;;;;44.30;30.90;;;13.30;99.90;;;;;;2253662;63;20649;-68
2022/05/07 02:48:07;;;;;;;40.65;31.02;;;13.30;99.90;;;;;;2253667;63;20165;-70
2022/05/07 02:50:45;;;;;;;44.80;30.25;;;13.30;99.90;;;;;;2254469;63;20168;-68
2022/05/07 02:53:25;;;;;;;48.00;30.67;;;13.30;99.90;;;;;;2251158;63;20241;-69
2022/05/07 02:56:05;;;;;;;41.25;29.38;;;13.30;99.90;;;;;;2253428;63;20326;-69
2022/05/07 02:58:42;;;;;;;38.35;29.35;;;13.30;99.90;;;;;;2254047;63;20216;-68
2022/05/07 03:01:18;;;;;;;41.05;29.10;;;13.30;99.90;;;;;;2249391;63;20220;-68
2022/05/07 03:03:56;;;;;;;39.20;30.05;;;13.30;99.90;;;;;;2254307;63;20157;-69
2022/05/07 03:06:40;;;;;;;37.63;28.92;;;13.30;99.90;;;;;;2253372;63;20184;-69
2022/05/07 03:09:19;;;;;;;40.75;30.13;;;13.30;99.90;;;;;;2254477;63;20626;-69
2022/05/07 03:11:55;;;;;;;39.58;29.52;;;13.30;99.90;;;;;;2254341;63;20180;-69
2022/05/07 03:14:34;;;;;;;40.03;29.50;;;13.20;99.90;;;;;;2254134;63;20331;-69
2022/05/07 03:17:14;;;;;;;38.25;29.58;;;13.10;99.90;;;;;;2252481;63;20706;-69
2022/05/07 03:19:55;;;;;;;36.35;28.77;;;13.10;99.90;;;;;;2250932;63;20271;-67
2022/05/07 03:22:34;;;;;;;39.92;29.23;;;13.10;99.90;;;;;;2254695;63;20180;-69
2022/05/07 03:25:11;;;;;;;44.42;30.52;;;13.00;99.90;;;;;;2253564;63;20271;-68
2022/05/07 03:27:49;;;;;;;40.92;29.73;;;13.00;99.90;;;;;;2253877;63;20243;-68
2022/05/07 03:30:29;;;;;;;34.70;28.33;;;13.00;99.90;;;;;;2253885;63;20232;-68
2022/05/07 03:33:08;;;;;;;38.75;30.15;;;12.90;99.90;;;;;;2254563;63;20832;-68
2022/05/07 03:35:47;;;;;;;45.08;29.35;;;12.90;99.90;;;;;;2253826;63;20161;-69
2022/05/07 03:38:27;;;;;;;38.22;29.75;;;12.80;99.90;;;;;;2251403;63;20239;-70
2022/05/07 03:41:07;;;;;;;35.55;29.67;;;12.80;99.90;;;;;;2254296;63;20287;-68
2022/05/07 03:43:47;;;;;;;41.17;30.70;;;12.70;99.90;;;;;;2254394;63;20326;-70
2022/05/07 03:46:25;;;;;;;41.67;32.10;;;12.80;99.90;;;;;;2252448;63;20373;-69
2022/05/07 03:49:03;;;;;;;38.00;28.90;;;12.70;99.90;;;;;;2254293;63;21206;-69
2022/05/07 03:54:38;;;;;;;39.88;31.50;;;12.70;99.90;;;;;;2252052;63;20597;-68
2022/05/07 03:57:16;;;;;;;38.00;30.02;;;12.70;99.90;;;;;;2254549;63;20168;-68
2022/05/07 03:59:52;;;;;;;44.33;31.52;;;12.70;99.90;;;;;;2253378;63;20240;-69
2022/05/07 04:02:32;;;;;;;40.45;30.27;;;12.70;99.90;;;;;;2254201;63;20172;-69
2022/05/07 04:05:12;;;;;;;38.00;30.38;;;12.70;99.90;;;;;;2253651;63;20197;-69
2022/05/07 04:07:48;;;;;;;44.45;31.00;;;12.70;99.90;;;;;;2254183;63;20334;-69
2022/05/07 04:10:25;;;;;;;41.40;32.30;;;12.70;99.90;;;;;;2254068;63;20181;-69
2022/05/07 04:13:03;;;;;;;36.75;29.67;;;12.70;99.90;;;;;;2253282;63;20192;-68
2022/05/07 04:15:45;;;;;;;36.63;29.95;;;12.70;99.90;;;;;;2251914;63;20590;-69
2022/05/07 04:18:22;;;;;;;39.95;28.83;;;12.70;99.90;;;;;;2252460;63;20169;-68
2022/05/07 04:20:59;;;;;;;38.08;29.58;;;12.70;99.90;;;;;;2251011;63;20244;-67
2022/05/07 04:23:35;;;;;;;40.92;29.83;;;12.70;99.90;;;;;;2247088;63;20224;-68
2022/05/07 04:26:13;;;;;;;39.38;29.52;;;12.70;99.90;;;;;;2250935;63;20192;-68
2022/05/07 04:28:52;;;;;;;39.83;29.92;;;12.80;99.90;;;;;;2250826;63;20165;-69
2022/05/07 04:31:29;;;;;;;36.92;28.42;;;12.80;99.90;;;;;;2253099;63;20245;-69
2022/05/07 04:34:07;;;;;;;37.47;27.52;;;12.80;99.90;;;;;;2252633;63;20580;-70
2022/05/07 04:36:46;;;;;;;38.17;28.80;;;12.80;99.90;;;;;;2253547;63;20165;-69
2022/05/07 04:39:22;;;;;;;36.90;29.05;;;12.80;99.90;;;;;;2253679;63;20366;-68
2022/05/07 04:42:00;;;;;;;38.63;27.90;;;12.90;99.90;;;;;;2253976;63;20562;-70
2022/05/07 04:44:38;;;;;;;38.78;30.13;;;12.90;99.90;;;;;;2249081;63;20185;-68
2022/05/07 04:47:17;;;;;;;37.65;28.38;;;12.90;99.90;;;;;;2254124;63;20173;-68
2022/05/07 04:49:55;;;;;;;36.45;27.50;;;13.00;99.90;;;;;;2253424;63;20316;-69
2022/05/07 04:52:34;;;;;;;36.90;27.23;;;13.00;99.90;;;;;;2253627;63;20169;-69
2022/05/07 04:55:12;;;;;;;35.38;26.80;;;13.10;99.90;;;;;;2252052;63;20333;-70
2022/05/07 04:57:51;;;;;;;32.42;26.05;;;13.10;99.90;;;;;;2253315;63;20687;-68
2022/05/07 05:00:27;;;;;;;34.85;26.67;;;13.10;99.90;;;;;;2253399;63;20181;-68
2022/05/07 05:03:07;;;;;;;31.95;26.65;;;13.10;99.90;;;;;;2253395;63;20359;-68
2022/05/07 05:05:48;;;;;;;31.60;25.40;;;13.20;99.90;;;;;;2253853;63;20181;-69
2022/05/07 05:08:31;;;;;;;31.42;26.90;;;13.20;99.90;;;;;;2253894;63;20324;-68
2022/05/07 05:11:13;;;;;;;34.60;26.60;;;13.20;99.90;;;;;;2252868;63;20204;-69
2022/05/07 05:13:50;;;;;;;30.58;25.80;;;13.30;99.90;;;;;;2252952;63;20208;-68
2022/05/07 05:16:26;;;;;;;37.17;27.63;;;13.30;99.90;;;;;;2252001;63;20557;-71
2022/05/07 05:19:03;;;;;;;32.60;26.38;;;13.40;99.90;;;;;;2253218;63;20188;-70
2022/05/07 05:21:39;;;;;;;33.40;26.75;;;13.40;99.90;;;;;;2253724;63;20169;-69
2022/05/07 05:24:17;;;;;;;32.17;25.33;;;13.40;99.90;;;;;;2253688;63;20161;-69
2022/05/07 05:26:56;;;;;;;34.25;26.05;;;13.50;99.90;;;;;;2253414;63;20176;-69
2022/05/07 05:29:33;;;;;;;31.17;25.48;;;13.50;99.90;;;;;;2252971;63;20235;-69
2022/05/07 05:32:09;;;;;;;32.88;27.63;;;13.50;99.90;;;;;;2253330;63;20194;-70
2022/05/07 05:34:53;;;;;;;32.25;26.55;;;13.60;99.90;;;;;;2253500;63;20267;-68
2022/05/07 05:37:30;;;;;;;35.90;29.35;;;13.50;99.90;;;;;;2253018;63;20795;-69
2022/05/07 05:40:09;;;;;;;32.50;26.00;;;13.50;99.90;;;;;;2253782;63;20616;-68
2022/05/07 05:42:50;;;;;;;33.70;27.33;;;13.50;99.90;;;;;;2253907;63;20243;-69
2022/05/07 05:45:29;;;;;;;35.58;28.05;;;13.50;99.90;;;;;;2252448;63;20324;-69
2022/05/07 05:48:07;;;;;;;36.42;30.27;;;13.50;99.90;;;;;;2253168;63;20157;-69
2022/05/07 05:50:43;;;;;;;33.38;26.60;;;13.40;99.90;;;;;;2253030;63;20310;-68
2022/05/07 05:53:21;;;;;;;33.05;27.85;;;13.40;99.90;;;;;;2252960;63;20201;-68
2022/05/07 05:56:02;;;;;;;38.70;28.60;;;13.40;99.90;;;;;;2253600;63;20184;-69
2022/05/07 05:58:42;;;;;;;40.95;29.70;;;13.40;99.90;;;;;;2252172;63;20186;-70
2022/05/07 06:01:18;;;;;;;34.92;28.58;;;13.40;99.90;;;;;;2246713;63;20259;-69
2022/05/07 06:03:55;;;;;;;32.78;27.65;;;13.40;99.90;;;;;;2253859;63;20271;-68
2022/05/07 06:06:32;;;;;;;32.65;27.55;;;13.40;99.90;;;;;;2253463;63;20590;-68
2022/05/07 06:09:14;;;;;;;33.72;28.02;;;13.50;99.90;;;;;;2247814;63;20245;-68
2022/05/07 06:11:54;;;;;;;37.63;27.55;;;13.50;99.90;;;;;;2253256;63;20202;-69
2022/05/07 06:14:32;;;;;;;38.58;28.27;;;13.60;99.90;;;;;;2249235;63;20290;-68
2022/05/07 06:17:13;;;;;;;31.77;26.17;;;13.60;99.90;;;;;;2252652;63;20204;-69
2022/05/07 06:19:52;;;;;;;34.55;27.23;;;13.60;99.90;;;;;;2251995;63;20265;-69
2022/05/07 06:22:32;;;;;;;34.58;26.05;;;13.70;99.90;;;;;;2248572;63;20173;-67
2022/05/07 06:28:08;;;;;;;29.33;24.63;;;13.80;99.90;;;;;;2254957;63;20243;-67
2022/05/07 06:30:48;;;;;;;30.08;25.13;;;13.80;99.90;;;;;;2254784;63;20176;-69
2022/05/07 06:33:28;;;;;;;28.10;23.52;;;13.80;99.90;;;;;;2254971;63;20712;-69
2022/05/07 06:36:06;;;;;;;32.28;23.95;;;13.80;99.90;;;;;;2254785;63;20286;-69
2022/05/07 06:38:44;;;;;;;25.73;21.77;;;13.90;99.90;;;;;;2254913;63;20184;-69
2022/05/07 06:41:23;;;;;;;28.38;21.83;;;14.00;99.90;;;;;;2254916;63;20202;-68
2022/05/07 06:44:01;;;;;;;25.05;21.80;;;14.20;99.90;;;;;;2254744;63;20267;-69
2022/05/07 06:46:41;;;;;;;27.67;22.55;;;14.40;99.90;;;;;;2254617;63;20652;-69
2022/05/07 06:49:18;;;;;;;26.92;23.02;;;14.60;99.90;;;;;;2249805;63;20229;-69
2022/05/07 06:51:59;;;;;;;26.45;20.95;;;14.70;99.90;;;;;;2254679;63;20226;-68
2022/05/07 06:54:39;;;;;;;26.08;22.23;;;14.90;99.90;;;;;;2254153;63;20453;-70
2022/05/07 06:57:15;;;;;;;24.42;21.02;;;15.10;99.90;;;;;;2254651;63;20292;-69
2022/05/07 06:59:52;;;;;;;23.63;20.95;;;15.40;99.90;;;;;;2251493;63;20252;-69
2022/05/07 07:02:29;;;;;;;23.58;21.08;;;15.50;99.90;;;;;;2253515;63;20164;-69
2022/05/07 07:05:07;;;;;;;20.20;17.45;;;15.70;99.90;;;;;;2253942;63;20185;-69
2022/05/07 07:07:43;;;;;;;20.27;18.17;;;15.70;99.90;;;;;;2253350;63;20860;-69
2022/05/07 07:10:21;;;;;;;25.67;19.30;;;15.70;99.90;;;;;;2253508;63;20165;-68
2022/05/07 07:13:01;;;;;;;22.90;19.30;;;15.80;99.90;;;;;;2252662;63;20169;-69
2022/05/07 07:15:44;;;;;;;22.50;18.48;;;15.90;99.90;;;;;;2254575;63;20638;-70
2022/05/07 07:18:21;;;;;;;24.02;19.60;;;16.00;99.90;;;;;;2254583;63;20164;-69
2022/05/07 07:20:58;;;;;;;21.70;18.65;;;16.00;99.90;;;;;;2254497;63;20807;-69
2022/05/07 07:23:36;;;;;;;21.08;18.88;;;16.30;99.90;;;;;;2254733;63;20673;-68
2022/05/07 07:26:17;;;;;;;21.55;18.40;;;16.30;99.90;;;;;;2254427;63;20224;-68
2022/05/07 07:28:56;;;;;;;21.83;19.63;;;16.20;99.90;;;;;;2254649;63;20160;-68
2022/05/07 07:31:34;;;;;;;23.27;19.10;;;16.40;99.90;;;;;;2254653;63;20348;-69
2022/05/07 07:34:15;;;;;;;23.67;18.90;;;16.50;99.70;;;;;;2253890;63;20189;-70
2022/05/07 07:36:54;;;;;;;21.95;19.45;;;16.70;99.10;;;;;;2253768;63;20332;-70
2022/05/07 07:39:32;;;;;;;22.40;18.80;;;16.70;98.50;;;;;;2254640;63;20237;-68
2022/05/07 07:42:13;;;;;;;21.70;19.33;;;16.70;98.30;;;;;;2253681;63;20373;-69
2022/05/07 07:47:57;;;;;;;21.55;19.13;;;16.70;97.90;;;;;;2246651;63;20225;-68
2022/05/07 07:50:35;;;;;;;19.58;17.08;;;16.80;98.00;;;;;;2252547;63;20176;-69
2022/05/07 07:53:12;;;;;;;21.75;19.45;;;17.00;98.00;;;;;;2254385;63;20654;-69
2022/05/07 07:55:54;;;;;;;22.55;18.45;;;17.10;97.80;;;;;;2254298;63;20768;-68
2022/05/07 07:58:34;;;;;;;24.27;20.70;;;17.30;97.80;;;;;;2254572;63;20323;-68
2022/05/07 08:01:12;;;;;;;21.48;19.00;;;17.60;97.60;;;;;;2254513;63;20660;-69
2022/05/07 08:03:51;;;;;;;26.45;20.23;;;17.70;97.30;;;;;;2254392;63;20322;-68
2022/05/07 08:06:30;;;;;;;23.13;19.55;;;17.60;97.10;;;;;;2252937;63;20271;-68
2022/05/07 08:12:01;;;;;;;25.20;21.02;;;17.70;96.70;;;;;;2254111;63;20240;-71
2022/05/07 08:14:38;;;;;;;25.13;21.70;;;17.70;96.60;;;;;;2253801;63;20181;-69
2022/05/07 08:17:16;;;;;;;27.05;22.30;;;17.70;96.70;;;;;;2253652;63;20172;-68
2022/05/07 08:19:53;;;;;;;29.45;23.90;;;17.80;96.70;;;;;;2252811;63;20216;-68
2022/05/07 08:22:29;;;;;;;34.28;26.23;;;17.80;96.70;;;;;;2254431;63;20169;-68
2022/05/07 08:25:08;;;;;;;31.10;26.63;;;17.80;97.00;;;;;;2254060;63;20161;-69
2022/05/07 08:27:45;;;;;;;32.13;26.75;;;17.80;97.50;;;;;;2252409;63;20161;-70
2022/05/07 08:30:23;;;;;;;31.15;27.13;;;18.00;97.70;;;;;;2251557;63;20157;-68
2022/05/07 08:33:05;;;;;;;35.53;27.88;;;18.10;97.90;;;;;;2254212;63;20284;-69
2022/05/07 08:35:48;;;;;;;36.67;28.30;;;18.10;98.00;;;;;;2253959;63;20184;-69
2022/05/07 08:38:24;;;;;;;41.17;29.98;;;18.10;98.10;;;;;;2254194;63;20249;-69
2022/05/07 08:41:01;;;;;;;35.55;28.00;;;18.00;98.30;;;;;;2254133;63;20210;-69
2022/05/07 08:43:43;;;;;;;36.63;25.92;;;18.10;98.30;;;;;;2253336;63;20192;-69
2022/05/07 08:46:24;;;;;;;33.42;26.73;;;18.30;98.30;;;;;;2253353;63;20247;-70
2022/05/07 08:49:01;;;;;;;30.98;25.85;;;18.40;98.00;;;;;;2253374;63;20182;-69
2022/05/07 08:51:39;;;;;;;36.08;28.63;;;18.50;97.80;;;;;;2254180;63;20180;-70
2022/05/07 08:54:18;;;;;;;38.25;30.30;;;18.50;97.80;;;;;;2253834;63;20239;-69
2022/05/07 08:56:56;;;;;;;37.05;29.02;;;18.50;97.80;;;;;;2253628;63;20157;-68
2022/05/07 08:59:36;;;;;;;35.92;28.08;;;18.50;98.20;;;;;;2249417;63;20279;-69
2022/05/07 09:02:12;;;;;;;33.60;28.42;;;18.40;98.10;;;;;;2254056;63;20177;-69
2022/05/07 09:05:19;;;;;;;33.72;26.52;;;18.40;98.20;;;;;;2248994;63;20184;-69
2022/05/07 09:07:58;;;;;;;34.20;27.77;;;18.30;98.10;;;;;;2248907;63;20326;-68
2022/05/07 09:10:36;;;;;;;35.22;27.02;;;18.40;98.10;;;;;;2254116;63;20176;-69
2022/05/07 09:13:20;;;;;;;33.83;24.67;;;18.40;98.00;;;;;;2253509;63;20205;-69
2022/05/07 09:16:01;;;;;;;33.40;24.85;;;18.40;97.60;;;;;;2251876;63;20180;-69
2022/05/07 09:18:37;;;;;;;26.75;22.98;;;18.40;97.20;;;;;;2250064;63;20660;-69
2022/05/07 09:21:16;;;;;;;27.92;21.00;;;18.50;96.70;;;;;;2254134;63;20743;-70
2022/05/07 09:23:55;;;;;;;22.90;20.25;;;18.50;96.20;;;;;;2253726;63;20184;-69
2022/05/07 09:26:40;;;;;;;28.95;21.85;;;18.60;95.60;;;;;;2249503;63;20300;-70
2022/05/07 09:29:19;;;;;;;26.08;22.90;;;18.60;95.20;;;;;;2252664;63;20642;-67
2022/05/07 09:32:08;;;;;;;27.92;19.95;;;18.70;95.10;;;;;;2251308;63;20359;-68
2022/05/07 09:37:44;;;;;;;30.42;22.58;;;18.80;94.80;;;;;;2250784;63;20224;-68
2022/05/07 09:40:21;;;;;;;31.05;22.77;;;18.90;95.00;;;;;;2253951;63;20165;-69
2022/05/07 09:43:03;;;;;;;30.67;22.98;;;19.00;94.80;;;;;;2253291;63;20746;-68
2022/05/07 09:45:42;;;;;;;26.15;21.08;;;19.10;94.70;;;;;;2249561;63;20153;-69
2022/05/07 09:48:19;;;;;;;31.77;22.52;;;19.30;94.80;;;;;;2246687;63;20189;-67
2022/05/07 09:50:58;;;;;;;35.08;24.85;;;19.40;94.50;;;;;;2252244;63;20310;-68
2022/05/07 09:59:34;;;;;;;30.95;24.63;;;19.80;94.10;;;;;;2253659;63;20206;-69
2022/05/07 10:02:10;;;;;;;32.38;24.65;;;20.10;93.90;;;;;;2253763;63;20209;-70
2022/05/07 10:05:06;;;;;;;34.15;25.63;;;20.20;93.60;;;;;;2251229;63;20587;-69
2022/05/07 10:08:14;;;;;;;28.30;23.15;;;20.40;93.10;;;;;;2254764;63;20185;-69
2022/05/07 10:10:53;;;;;;;30.83;24.15;;;20.60;92.50;;;;;;2254912;63;20185;-70
2022/05/07 10:13:30;;;;;;;31.13;24.80;;;20.80;91.40;;;;;;2254954;63;20611;-69
2022/05/07 10:16:10;;;;;;;26.58;22.95;;;21.00;90.80;;;;;;2251673;63;20279;-70
2022/05/07 10:18:51;;;;;;;29.63;24.90;;;21.10;90.10;;;;;;2253323;63;20149;-70
2022/05/07 10:21:31;;;;;;;33.40;24.55;;;21.30;89.30;;;;;;2251912;63;20289;-71
2022/05/07 10:24:09;;;;;;;28.42;23.27;;;21.40;89.60;;;;;;2252409;63;20204;-70
2022/05/07 10:26:50;;;;;;;30.85;23.48;;;21.40;89.00;;;;;;2253944;63;20178;-69
2022/05/07 10:29:31;;;;;;;29.27;23.85;;;21.40;88.30;;;;;;2253205;63;20219;-71
2022/05/07 10:32:11;;;;;;;35.78;26.17;;;21.20;87.90;;;;;;2254458;63;20243;-73
2022/05/07 10:35:12;;;;;;;30.17;25.67;;;21.10;87.60;;;;;;2254175;63;20265;-71
2022/05/07 10:37:53;;;;;;;35.67;27.95;;;20.90;88.10;;;;;;2253857;63;20189;-72
2022/05/07 10:40:33;;;;;;;35.13;27.50;;;20.60;88.90;;;;;;2254679;63;20354;-70
2022/05/07 10:43:23;;;;;;;32.45;25.90;;;20.30;89.40;;;;;;2254163;63;20189;-71
2022/05/07 10:46:07;;;;;;;35.33;27.80;;;20.00;89.30;;;;;;2252003;63;20185;-73
2022/05/07 10:48:55;;;;;;;35.03;27.00;;;19.80;90.40;;;;;;2254865;63;20180;-71
2022/05/07 10:51:36;;;;;;;37.15;26.38;;;19.60;90.60;;;;;;2253816;63;20181;-72
2022/05/07 10:54:26;;;;;;;34.95;25.80;;;19.40;91.20;;;;;;2249259;63;20625;-71
2022/05/07 10:57:04;;;;;;;35.33;24.90;;;19.50;91.80;;;;;;2253656;63;20659;-72
2022/05/07 10:59:45;;;;;;;36.25;25.05;;;19.50;92.00;;;;;;2252145;63;20227;-71
2022/05/07 11:02:23;;;;;;;35.67;25.88;;;19.60;92.20;;;;;;2253644;63;20291;-73
2022/05/07 11:05:03;;;;;;;30.80;23.65;;;19.80;92.00;;;;;;2250840;63;20625;-72
2022/05/07 11:07:41;;;;;;;32.55;23.63;;;19.90;91.80;;;;;;2249971;63;20169;-72
2022/05/07 11:10:17;;;;;;;29.10;20.20;;;19.90;91.60;;;;;;2252231;63;20240;-74
2022/05/07 11:13:24;;;;;;;25.80;19.63;;;19.90;91.50;;;;;;2252616;63;20224;-73
2022/05/07 11:16:07;;;;;;;;;;;19.80;91.40;;;;;;2253034;63;20181;-75
2022/05/07 11:18:55;;;;;;;24.67;18.88;;;19.60;91.50;;;;;;2251246;63;20190;-72
2022/05/07 11:21:37;;;;;;;24.75;18.42;;;19.60;91.70;;;;;;2253127;63;20261;-73
2022/05/07 11:24:20;;;;;;;21.55;16.88;;;19.50;91.70;;;;;;2252048;63;20314;-72
2022/05/07 11:26:58;;;;;;;21.75;16.33;;;19.40;91.70;;;;;;2254343;63;20312;-71
2022/05/07 11:29:36;;;;;;;21.38;15.07;;;19.40;91.70;;;;;;2254106;63;20161;-73
2022/05/07 11:32:17;;;;;;;19.83;13.88;;;19.40;91.50;;;;;;2252770;63;20709;-71
2022/05/07 11:34:56;;;;;;;16.85;13.35;;;19.50;91.40;;;;;;2249442;63;20325;-72
2022/05/07 11:37:43;;;;;;;15.40;11.77;;;19.60;91.10;;;;;;2253774;63;20198;-73
2022/05/07 11:40:31;;;;;;;15.10;11.70;;;20.00;90.80;;;;;;2252878;63;20190;-73
2022/05/07 11:46:07;;;;;;;13.98;10.90;;;21.30;88.30;;;;;;2251044;63;20160;-72
2022/05/07 11:48:45;;;;;;;8.55;7.68;;;21.70;85.20;;;;;;2250834;63;20532;-72
2022/05/07 11:51:27;;;;;;;9.05;6.43;;;21.40;84.80;;;;;;2253655;63;20633;-75
2022/05/07 11:54:11;;;;;;;8.07;6.35;;;21.20;85.70;;;;;;2254061;63;20553;-72
2022/05/07 11:56:50;;;;;;;9.55;7.43;;;21.20;86.50;;;;;;2251052;63;20189;-72
2022/05/07 11:59:30;;;;;;;8.52;6.68;;;21.20;86.70;;;;;;2250931;63;20574;-73
2022/05/07 12:02:08;;;;;;;10.80;7.60;;;21.30;86.90;;;;;;2253185;63;20307;-71
2022/05/07 12:04:46;;;;;;;8.55;7.53;;;21.40;87.00;;;;;;2251157;63;20201;-73
2022/05/07 12:07:23;;;;;;;11.20;8.40;;;21.40;86.80;;;;;;2253619;63;20310;-73
2022/05/07 12:10:04;;;;;;;9.93;8.15;;;21.50;86.00;;;;;;2253428;63;20222;-74
2022/05/07 12:12:41;;;;;;;9.90;7.53;;;21.60;85.70;;;;;;2253142;63;20182;-72
2022/05/07 12:17:52;;;;;;;8.13;7.10;;;21.50;85.70;;;;;;2246445;63;20682;-72
2022/05/07 12:18:16;;;;;;;8.25;7.38;;;21.50;85.20;;;;;;2254052;63;20186;-73
2022/05/07 12:20:56;;;;;;;9.90;7.15;;;21.40;85.10;;;;;;2250662;63;20298;-71
2022/05/07 12:32:03;;;;;;;12.68;9.00;;;21.10;84.70;;;;;;2250400;63;20185;-73
2022/05/07 12:34:40;;;;;;;11.55;8.82;;;21.50;85.20;;;;;;2253897;63;20192;-73
2022/05/07 12:37:20;;;;;;;11.25;9.23;;;21.10;84.90;;;;;;2253938;63;20251;-72
2022/05/07 12:40:03;;;;;;;11.25;9.02;;;21.30;84.20;;;;;;2253733;63;20306;-72
2022/05/07 12:42:39;;;;;;;11.40;9.48;;;21.50;83.30;;;;;;2253550;63;20910;-72
2022/05/07 12:45:14;;;;;;;;;;;22.00;82.50;;;;;;2253813;63;20224;-71
2022/05/07 12:47:53;;;;;;;16.10;12.10;;;22.40;82.40;;;;;;2248558;63;20062;-71
2022/05/07 12:50:29;;;;;;;16.27;13.10;;;22.80;80.60;;;;;;2249446;63;20283;-72
2022/05/07 12:53:06;;;;;;;14.95;12.32;;;23.40;79.50;;;;;;2253091;63;20354;-72
2022/05/07 12:55:43;;;;;;;16.42;13.90;;;24.10;78.20;;;;;;2253950;63;20693;-73
2022/05/07 12:58:22;;;;;;;17.13;13.57;;;24.30;75.70;;;;;;2253710;63;20528;-72
2022/05/07 13:00:58;;;;;;;17.85;13.98;;;24.00;74.60;;;;;;2253162;63;20318;-72
2022/05/07 13:03:34;;;;;;;15.27;13.60;;;23.90;74.40;;;;;;2253991;63;20396;-72
2022/05/07 13:06:13;;;;;;;16.42;12.55;;;23.80;74.40;;;;;;2253040;63;20225;-72
2022/05/07 13:08:53;;;;;;;17.63;12.52;;;23.50;74.00;;;;;;2253454;63;20178;-71
2022/05/07 13:11:30;;;;;;;18.52;12.32;;;23.60;73.90;;;;;;2252382;63;20248;-73
2022/05/07 13:14:04;;;;;;;;;;;23.80;73.50;;;;;;2254267;63;20310;-72
2022/05/07 13:16:42;;;;;;;;;;;24.60;73.50;;;;;;2253939;63;20502;-72
2022/05/07 13:19:20;;;;;;;12.10;9.95;;;24.60;73.30;;;;;;2253589;63;20142;-71
2022/05/07 13:21:56;;;;;;;11.30;9.65;;;25.20;71.00;;;;;;2249130;63;20236;-72
2022/05/07 13:24:33;;;;;;;8.18;7.38;;;25.60;68.60;;;;;;2253506;63;20650;-72
2022/05/07 13:27:13;;;;;;;9.82;8.80;;;25.60;67.30;;;;;;2251653;63;20345;-72
2022/05/07 13:29:53;;;;;;;9.05;7.43;;;25.60;65.60;;;;;;2253711;63;20240;-72
2022/05/07 13:32:30;;;;;;;9.65;8.38;;;25.30;65.60;;;;;;2252615;63;20165;-72
2022/05/07 13:35:08;;;;;;;10.02;8.63;;;25.10;65.70;;;;;;2251138;63;20299;-74
2022/05/07 13:37:45;;;;;;;9.30;7.72;;;26.30;64.30;;;;;;2250075;63;20190;-72
2022/05/07 13:40:22;;;;;;;7.85;6.43;;;26.30;63.10;;;;;;2252593;63;20345;-71
2022/05/07 13:43:02;;;;;;;4.88;4.05;;;26.30;61.90;;;;;;2249033;63;20924;-71
2022/05/07 13:45:38;;;;;;;4.68;3.10;;;25.50;61.60;;;;;;2253808;63;20882;-71
2022/05/07 13:48:19;;;;;;;2.88;2.58;;;24.40;62.60;;;;;;2253107;63;20250;-70
2022/05/07 13:50:58;;;;;;;4.05;2.70;;;23.60;64.30;;;;;;2251053;63;20225;-72
2022/05/07 13:53:35;;;;;;;4.65;3.30;;;23.00;66.00;;;;;;2250632;63;20184;-68
2022/05/07 13:56:17;;;;;;;4.75;4.18;;;22.60;67.50;;;;;;2253321;63;20172;-69
2022/05/07 13:58:56;;;;;;;6.30;5.65;;;22.40;69.80;;;;;;2250385;63;20267;-71
2022/05/07 14:01:35;;;;;;;6.35;5.72;;;22.60;71.00;;;;;;2252538;63;20772;-70
2022/05/07 14:04:14;;;;;;;6.57;5.78;;;23.20;71.60;;;;;;2253336;63;20165;-69
2022/05/07 14:06:50;;;;;;;6.57;5.97;;;24.60;70.00;;;;;;2250969;63;20605;-68
2022/05/07 14:09:27;;;;;;;6.05;5.45;;;26.40;66.20;;;;;;2253503;63;20186;-68
2022/05/07 14:12:06;;;;;;;6.90;5.75;;;28.40;63.00;;;;;;2249614;63;20548;-69